sensor_id;sensor_type;location;lat;lon;timestamp;pressure;altitude;pressure_sealevel;temperature;humidity
3598;BME280;1813;52.016;8.714;2024-03-06T00:00:32;-16261.94;;;-139.71;100.00
3598;BME280;1813;52.016;8.714;2024-03-06T00:03:08;-16261.94;;;-139.71;100.00
3598;BME280;1813;52.016;8.714;2024-03-06T00:05:42;-16261.94;;;-139.71;100.00
3598;BME280;1813;52.016;8.714;2024-03-06T00:08:15;-16261.94;;;-139.71;100.00
3598;BME280;1813;52.016;8.714;2024-03-06T00:10:48;-16261.94;;;-139.71;100.00
3598;BME280;1813;52.016;8.714;2024-03-06T00:13:22;-16261.94;;;-139.71;100.00
3598;BME280;1813;52.016;8.714;2024-03-06T00:15:56;-16261.94;;;-139.71;100.00
3598;BME280;1813;52.016;8.714;2024-03-06T00:18:31;-16261.94;;;-139.71;100.00
3598;BME280;1813;52.016;8.714;2024-03-06T00:21:05;-16261.94;;;-139.71;100.00
3598;BME280;1813;52.016;8.714;2024-03-06T00:23:40;-16261.94;;;-139.71;100.00
3598;BME280;1813;52.016;8.714;2024-03-06T00:26:13;-16261.94;;;-139.71;100.00
3598;BME280;1813;52.016;8.714;2024-03-06T00:28:46;-16261.94;;;-139.71;100.00
3598;BME280;1813;52.016;8.714;2024-03-06T00:31:20;-16261.94;;;-139.71;100.00
3598;BME280;1813;52.016;8.714;2024-03-06T00:33:56;-16261.94;;;-139.71;100.00
3598;BME280;1813;52.016;8.714;2024-03-06T00:36:29;-16261.94;;;-139.71;100.00
3598;BME280;1813;52.016;8.714;2024-03-06T00:39:02;-16261.94;;;-139.71;100.00
3598;BME280;1813;52.016;8.714;2024-03-06T00:41:36;-16261.94;;;-139.71;100.00
3598;BME280;1813;52.016;8.714;2024-03-06T00:44:09;-16261.94;;;-139.71;100.00
3598;BME280;1813;52.016;8.714;2024-03-06T00:46:42;-16261.94;;;-139.71;100.00
3598;BME280;1813;52.016;8.714;2024-03-06T00:49:18;-16261.94;;;-139.71;100.00
3598;BME280;1813;52.016;8.714;2024-03-06T00:51:51;-16261.94;;;-139.71;100.00
3598;BME280;1813;52.016;8.714;2024-03-06T00:54:25;-16261.94;;;-139.71;100.00
3598;BME280;1813;52.016;8.714;2024-03-06T00:56:58;-16261.94;;;-139.71;100.00
3598;BME280;1813;52.016;8.714;2024-03-06T00:59:31;-16261.94;;;-139.71;100.00
3598;BME280;1813;52.016;8.714;2024-03-06T01:02:05;-16261.94;;;-139.71;100.00
3598;BME280;1813;52.016;8.714;2024-03-06T01:04:41;-16261.94;;;-139.71;100.00
3598;BME280;1813;52.016;8.714;2024-03-06T01:07:14;-16261.94;;;-139.71;100.00
3598;BME280;1813;52.016;8.714;2024-03-06T01:09:47;-16261.94;;;-139.71;100.00
3598;BME280;1813;52.016;8.714;2024-03-06T01:12:21;-16261.94;;;-139.71;100.00
3598;BME280;1813;52.016;8.714;2024-03-06T01:14:55;-16261.94;;;-139.71;100.00
3598;BME280;1813;52.016;8.714;2024-03-06T01:17:28;-16261.94;;;-139.71;100.00
3598;BME280;1813;52.016;8.714;2024-03-06T01:20:05;-16261.94;;;-139.71;100.00
3598;BME280;1813;52.016;8.714;2024-03-06T01:22:40;-16261.94;;;-139.71;100.00
3598;BME280;1813;52.016;8.714;2024-03-06T01:25:13;-16261.94;;;-139.71;100.00
3598;BME280;1813;52.016;8.714;2024-03-06T01:27:47;-16261.94;;;-139.71;100.00
3598;BME280;1813;52.016;8.714;2024-03-06T01:30:21;-16261.94;;;-139.71;100.00
3598;BME280;1813;52.016;8.714;2024-03-06T01:32:54;-16261.94;;;-139.71;100.00
3598;BME280;1813;52.016;8.714;2024-03-06T01:35:30;-16261.94;;;-139.71;100.00
3598;BME280;1813;52.016;8.714;2024-03-06T01:38:04;-16261.94;;;-139.71;100.00
3598;BME280;1813;52.016;8.714;2024-03-06T01:40:43;-16261.94;;;-139.71;100.00
3598;BME280;1813;52.016;8.714;2024-03-06T01:43:20;-16261.94;;;-139.71;100.00
3598;BME280;1813;52.016;8.714;2024-03-06T01:45:53;-16261.94;;;-139.71;100.00
3598;BME280;1813;52.016;8.714;2024-03-06T01:48:28;-16261.94;;;-139.71;100.00
3598;BME280;1813;52.016;8.714;2024-03-06T01:51:05;-16261.94;;;-139.71;100.00
3598;BME280;1813;52.016;8.714;2024-03-06T01:53:38;-16261.94;;;-139.71;100.00
3598;BME280;1813;52.016;8.714;2024-03-06T01:56:12;-16261.94;;;-139.71;100.00
3598;BME280;1813;52.016;8.714;2024-03-06T01:58:48;-16261.94;;;-139.71;100.00
3598;BME280;1813;52.016;8.714;2024-03-06T02:01:21;-16261.94;;;-139.71;100.00
3598;BME280;1813;52.016;8.714;2024-03-06T02:03:55;-16261.94;;;-139.71;100.00
3598;BME280;1813;52.016;8.714;2024-03-06T02:06:32;-16261.94;;;-139.71;100.00
3598;BME280;1813;52.016;8.714;2024-03-06T02:09:06;-16261.94;;;-139.71;100.00
3598;BME280;1813;52.016;8.714;2024-03-06T02:11:40;-16261.94;;;-139.71;100.00
3598;BME280;1813;52.016;8.714;2024-03-06T02:14:13;-16261.94;;;-139.71;100.00
3598;BME280;1813;52.016;8.714;2024-03-06T02:16:46;-16261.94;;;-139.71;100.00
3598;BME280;1813;52.016;8.714;2024-03-06T02:19:20;-16261.94;;;-139.71;100.00
3598;BME280;1813;52.016;8.714;2024-03-06T02:21:56;-16261.94;;;-139.71;100.00
3598;BME280;1813;52.016;8.714;2024-03-06T02:24:29;-16261.94;;;-139.71;100.00
3598;BME280;1813;52.016;8.714;2024-03-06T02:27:02;-16261.94;;;-139.71;100.00
3598;BME280;1813;52.016;8.714;2024-03-06T02:29:36;-16261.94;;;-139.71;100.00
3598;BME280;1813;52.016;8.714;2024-03-06T02:32:12;-16261.94;;;-139.71;100.00
3598;BME280;1813;52.016;8.714;2024-03-06T02:34:48;-16261.94;;;-139.71;100.00
3598;BME280;1813;52.016;8.714;2024-03-06T02:37:24;-16261.94;;;-139.71;100.00
3598;BME280;1813;52.016;8.714;2024-03-06T02:39:57;-16261.94;;;-139.71;100.00
3598;BME280;1813;52.016;8.714;2024-03-06T02:42:30;-16261.94;;;-139.71;100.00
3598;BME280;1813;52.016;8.714;2024-03-06T02:45:05;-16261.94;;;-139.71;100.00
3598;BME280;1813;52.016;8.714;2024-03-06T02:47:39;-16261.94;;;-139.71;100.00
3598;BME280;1813;52.016;8.714;2024-03-06T02:50:12;-16261.94;;;-139.71;100.00
3598;BME280;1813;52.016;8.714;2024-03-06T02:52:48;-16261.94;;;-139.71;100.00
3598;BME280;1813;52.016;8.714;2024-03-06T02:55:23;-16261.94;;;-139.71;100.00
3598;BME280;1813;52.016;8.714;2024-03-06T02:57:56;-16261.94;;;-139.71;100.00
3598;BME280;1813;52.016;8.714;2024-03-06T03:00:30;-16261.94;;;-139.71;100.00
3598;BME280;1813;52.016;8.714;2024-03-06T03:03:03;-16261.94;;;-139.71;100.00
3598;BME280;1813;52.016;8.714;2024-03-06T03:05:37;-16261.94;;;-139.71;100.00
3598;BME280;1813;52.016;8.714;2024-03-06T03:08:13;-16261.94;;;-139.71;100.00
3598;BME280;1813;52.016;8.714;2024-03-06T03:10:46;-16261.94;;;-139.71;100.00
3598;BME280;1813;52.016;8.714;2024-03-06T03:13:20;-16261.94;;;-139.71;100.00
3598;BME280;1813;52.016;8.714;2024-03-06T03:15:53;-16261.94;;;-139.71;100.00
3598;BME280;1813;52.016;8.714;2024-03-06T03:18:26;-16261.94;;;-139.71;100.00
3598;BME280;1813;52.016;8.714;2024-03-06T03:20:59;-16261.94;;;-139.71;100.00
3598;BME280;1813;52.016;8.714;2024-03-06T03:23:35;-16261.94;;;-139.71;100.00
3598;BME280;1813;52.016;8.714;2024-03-06T03:26:09;-16261.94;;;-139.71;100.00
3598;BME280;1813;52.016;8.714;2024-03-06T03:28:43;-16261.94;;;-139.71;100.00
3598;BME280;1813;52.016;8.714;2024-03-06T03:31:17;-16261.94;;;-139.71;100.00
3598;BME280;1813;52.016;8.714;2024-03-06T03:33:51;-16261.94;;;-139.71;100.00
3598;BME280;1813;52.016;8.714;2024-03-06T03:36:24;-16261.94;;;-139.71;100.00
3598;BME280;1813;52.016;8.714;2024-03-06T03:39:00;-16261.94;;;-139.71;100.00
3598;BME280;1813;52.016;8.714;2024-03-06T03:41:34;-16261.94;;;-139.71;100.00
3598;BME280;1813;52.016;8.714;2024-03-06T03:44:07;-16261.94;;;-139.71;100.00
3598;BME280;1813;52.016;8.714;2024-03-06T03:46:41;-16261.94;;;-139.71;100.00
3598;BME280;1813;52.016;8.714;2024-03-06T03:49:14;-16261.94;;;-139.71;100.00
3598;BME280;1813;52.016;8.714;2024-03-06T03:51:48;-16261.94;;;-139.71;100.00
3598;BME280;1813;52.016;8.714;2024-03-06T03:54:24;-16261.94;;;-139.71;100.00
3598;BME280;1813;52.016;8.714;2024-03-06T03:56:58;-16261.94;;;-139.71;100.00
3598;BME280;1813;52.016;8.714;2024-03-06T03:59:31;-16261.94;;;-139.71;100.00
3598;BME280;1813;52.016;8.714;2024-03-06T04:02:04;-16261.94;;;-139.71;100.00
3598;BME280;1813;52.016;8.714;2024-03-06T04:04:38;-16261.94;;;-139.71;100.00
3598;BME280;1813;52.016;8.714;2024-03-06T04:07:11;-16261.94;;;-139.71;100.00
3598;BME280;1813;52.016;8.714;2024-03-06T04:09:49;-16261.94;;;-139.71;100.00
3598;BME280;1813;52.016;8.714;2024-03-06T04:12:22;-16261.94;;;-139.71;100.00
3598;BME280;1813;52.016;8.714;2024-03-06T04:14:55;-16261.94;;;-139.71;100.00
3598;BME280;1813;52.016;8.714;2024-03-06T04:17:29;-16261.94;;;-139.71;100.00
3598;BME280;1813;52.016;8.714;2024-03-06T04:20:02;-16261.94;;;-139.71;100.00
3598;BME280;1813;52.016;8.714;2024-03-06T04:22:38;-16261.94;;;-139.71;100.00
3598;BME280;1813;52.016;8.714;2024-03-06T04:25:14;-16261.94;;;-139.71;100.00
3598;BME280;1813;52.016;8.714;2024-03-06T04:27:48;-16261.94;;;-139.71;100.00
3598;BME280;1813;52.016;8.714;2024-03-06T04:30:22;-16261.94;;;-139.71;100.00
3598;BME280;1813;52.016;8.714;2024-03-06T04:32:55;-16261.94;;;-139.71;100.00
3598;BME280;1813;52.016;8.714;2024-03-06T04:35:28;-16261.94;;;-139.71;100.00
3598;BME280;1813;52.016;8.714;2024-03-06T04:38:01;-16261.94;;;-139.71;100.00
3598;BME280;1813;52.016;8.714;2024-03-06T04:40:39;-16261.94;;;-139.71;100.00
3598;BME280;1813;52.016;8.714;2024-03-06T04:43:12;-16261.94;;;-139.71;100.00
3598;BME280;1813;52.016;8.714;2024-03-06T04:45:46;-16261.94;;;-139.71;100.00
3598;BME280;1813;52.016;8.714;2024-03-06T04:48:19;-16261.94;;;-139.71;100.00
3598;BME280;1813;52.016;8.714;2024-03-06T04:50:52;-16261.94;;;-139.71;100.00
3598;BME280;1813;52.016;8.714;2024-03-06T04:53:26;-16261.94;;;-139.71;100.00
3598;BME280;1813;52.016;8.714;2024-03-06T04:56:02;-16261.94;;;-139.71;100.00
3598;BME280;1813;52.016;8.714;2024-03-06T04:58:35;-16261.94;;;-139.71;100.00
3598;BME280;1813;52.016;8.714;2024-03-06T05:01:08;-16261.94;;;-139.71;100.00
3598;BME280;1813;52.016;8.714;2024-03-06T05:03:42;-16261.94;;;-139.71;100.00
3598;BME280;1813;52.016;8.714;2024-03-06T05:06:15;-16261.94;;;-139.71;100.00
3598;BME280;1813;52.016;8.714;2024-03-06T05:08:48;-16261.94;;;-139.71;100.00
3598;BME280;1813;52.016;8.714;2024-03-06T05:11:24;-16261.94;;;-139.71;100.00
3598;BME280;1813;52.016;8.714;2024-03-06T05:13:58;-16261.94;;;-139.71;100.00
3598;BME280;1813;52.016;8.714;2024-03-06T05:16:31;-16261.94;;;-139.71;100.00
3598;BME280;1813;52.016;8.714;2024-03-06T05:19:05;-16261.94;;;-139.71;100.00
3598;BME280;1813;52.016;8.714;2024-03-06T05:21:38;-16261.94;;;-139.71;100.00
3598;BME280;1813;52.016;8.714;2024-03-06T05:24:11;-16261.94;;;-139.71;100.00
3598;BME280;1813;52.016;8.714;2024-03-06T05:26:47;-16261.94;;;-139.71;100.00
3598;BME280;1813;52.016;8.714;2024-03-06T05:29:21;-16261.94;;;-139.71;100.00
3598;BME280;1813;52.016;8.714;2024-03-06T05:31:54;-16261.94;;;-139.71;100.00
3598;BME280;1813;52.016;8.714;2024-03-06T05:34:28;-16261.94;;;-139.71;100.00
3598;BME280;1813;52.016;8.714;2024-03-06T05:37:01;-16261.94;;;-139.71;100.00
3598;BME280;1813;52.016;8.714;2024-03-06T05:39:36;-16261.94;;;-139.71;100.00
3598;BME280;1813;52.016;8.714;2024-03-06T05:42:15;-16261.94;;;-139.71;100.00
3598;BME280;1813;52.016;8.714;2024-03-06T05:44:48;-16261.94;;;-139.71;100.00
3598;BME280;1813;52.016;8.714;2024-03-06T05:47:25;-16261.94;;;-139.71;100.00
3598;BME280;1813;52.016;8.714;2024-03-06T05:49:59;-16261.94;;;-139.71;100.00
3598;BME280;1813;52.016;8.714;2024-03-06T05:52:34;-16261.94;;;-139.71;100.00
3598;BME280;1813;52.016;8.714;2024-03-06T05:55:08;-16261.94;;;-139.71;100.00
3598;BME280;1813;52.016;8.714;2024-03-06T05:57:44;-16261.94;;;-139.71;100.00
3598;BME280;1813;52.016;8.714;2024-03-06T06:00:19;-16261.94;;;-139.71;100.00
3598;BME280;1813;52.016;8.714;2024-03-06T06:02:52;-16261.94;;;-139.71;100.00
3598;BME280;1813;52.016;8.714;2024-03-06T06:05:26;-16261.94;;;-139.71;100.00
3598;BME280;1813;52.016;8.714;2024-03-06T06:08:00;-16261.94;;;-139.71;100.00
3598;BME280;1813;52.016;8.714;2024-03-06T06:10:33;-16261.94;;;-139.71;100.00
3598;BME280;1813;52.016;8.714;2024-03-06T06:13:09;-16261.94;;;-139.71;100.00
3598;BME280;1813;52.016;8.714;2024-03-06T06:15:42;-16261.94;;;-139.71;100.00
3598;BME280;1813;52.016;8.714;2024-03-06T06:18:16;-16261.94;;;-139.71;100.00
3598;BME280;1813;52.016;8.714;2024-03-06T06:20:50;-16261.94;;;-139.71;100.00
3598;BME280;1813;52.016;8.714;2024-03-06T06:23:24;-16261.94;;;-139.71;100.00
3598;BME280;1813;52.016;8.714;2024-03-06T06:25:57;-16261.94;;;-139.71;100.00
3598;BME280;1813;52.016;8.714;2024-03-06T06:28:33;-16261.94;;;-139.71;100.00
3598;BME280;1813;52.016;8.714;2024-03-06T06:31:07;-16261.94;;;-139.71;100.00
3598;BME280;1813;52.016;8.714;2024-03-06T06:33:41;-16261.94;;;-139.71;100.00
3598;BME280;1813;52.016;8.714;2024-03-06T06:36:16;-16261.94;;;-139.71;100.00
3598;BME280;1813;52.016;8.714;2024-03-06T06:38:50;-16261.94;;;-139.71;100.00
3598;BME280;1813;52.016;8.714;2024-03-06T06:41:23;-16261.94;;;-139.71;100.00
3598;BME280;1813;52.016;8.714;2024-03-06T06:43:59;-16261.94;;;-139.71;100.00
3598;BME280;1813;52.016;8.714;2024-03-06T06:46:33;-16261.94;;;-139.71;100.00
3598;BME280;1813;52.016;8.714;2024-03-06T06:49:06;-16261.94;;;-139.71;100.00
3598;BME280;1813;52.016;8.714;2024-03-06T06:51:39;-16261.94;;;-139.71;100.00
3598;BME280;1813;52.016;8.714;2024-03-06T06:54:12;-16261.94;;;-139.71;100.00
3598;BME280;1813;52.016;8.714;2024-03-06T06:56:46;-16261.94;;;-139.71;100.00
3598;BME280;1813;52.016;8.714;2024-03-06T06:59:22;-16261.94;;;-139.71;100.00
3598;BME280;1813;52.016;8.714;2024-03-06T07:01:56;-16261.94;;;-139.71;100.00
3598;BME280;1813;52.016;8.714;2024-03-06T07:04:29;-16261.94;;;-139.71;100.00
3598;BME280;1813;52.016;8.714;2024-03-06T07:07:03;-16261.94;;;-139.71;100.00
3598;BME280;1813;52.016;8.714;2024-03-06T07:09:36;-16261.94;;;-139.71;100.00
3598;BME280;1813;52.016;8.714;2024-03-06T07:12:09;-16261.94;;;-139.71;100.00
3598;BME280;1813;52.016;8.714;2024-03-06T07:14:45;-16261.94;;;-139.71;100.00
3598;BME280;1813;52.016;8.714;2024-03-06T07:17:18;-16261.94;;;-139.71;100.00
3598;BME280;1813;52.016;8.714;2024-03-06T07:19:52;-16261.94;;;-139.71;100.00
3598;BME280;1813;52.016;8.714;2024-03-06T07:22:25;-16261.94;;;-139.71;100.00
3598;BME280;1813;52.016;8.714;2024-03-06T07:24:58;-16261.94;;;-139.71;100.00
3598;BME280;1813;52.016;8.714;2024-03-06T07:27:31;-16261.94;;;-139.71;100.00
3598;BME280;1813;52.016;8.714;2024-03-06T07:30:09;-16261.94;;;-139.71;100.00
3598;BME280;1813;52.016;8.714;2024-03-06T07:32:42;-16261.94;;;-139.71;100.00
3598;BME280;1813;52.016;8.714;2024-03-06T07:35:16;-16261.94;;;-139.71;100.00
3598;BME280;1813;52.016;8.714;2024-03-06T07:37:49;-16261.94;;;-139.71;100.00
3598;BME280;1813;52.016;8.714;2024-03-06T07:40:22;-16261.94;;;-139.71;100.00
3598;BME280;1813;52.016;8.714;2024-03-06T07:42:55;-16261.94;;;-139.71;100.00
3598;BME280;1813;52.016;8.714;2024-03-06T07:45:32;-16261.94;;;-139.71;100.00
3598;BME280;1813;52.016;8.714;2024-03-06T07:48:06;-16261.94;;;-139.71;100.00
3598;BME280;1813;52.016;8.714;2024-03-06T07:50:40;-16261.94;;;-139.71;100.00
3598;BME280;1813;52.016;8.714;2024-03-06T07:53:13;-16261.94;;;-139.71;100.00
3598;BME280;1813;52.016;8.714;2024-03-06T07:55:47;-16261.94;;;-139.71;100.00
3598;BME280;1813;52.016;8.714;2024-03-06T07:58:20;-16261.94;;;-139.71;100.00
3598;BME280;1813;52.016;8.714;2024-03-06T08:00:56;-16261.94;;;-139.71;100.00
3598;BME280;1813;52.016;8.714;2024-03-06T08:03:30;-16261.94;;;-139.71;100.00
3598;BME280;1813;52.016;8.714;2024-03-06T08:06:05;-16261.94;;;-139.71;100.00
3598;BME280;1813;52.016;8.714;2024-03-06T08:08:40;-16261.94;;;-139.71;100.00
3598;BME280;1813;52.016;8.714;2024-03-06T08:11:14;-16261.94;;;-139.71;100.00
3598;BME280;1813;52.016;8.714;2024-03-06T08:13:48;-16261.94;;;-139.71;100.00
3598;BME280;1813;52.016;8.714;2024-03-06T08:16:25;-16261.94;;;-139.71;100.00
3598;BME280;1813;52.016;8.714;2024-03-06T08:18:58;-16261.94;;;-139.71;100.00
3598;BME280;1813;52.016;8.714;2024-03-06T08:21:32;-16261.94;;;-139.71;100.00
3598;BME280;1813;52.016;8.714;2024-03-06T08:24:05;-16261.94;;;-139.71;100.00
3598;BME280;1813;52.016;8.714;2024-03-06T08:26:38;-16261.94;;;-139.71;100.00
3598;BME280;1813;52.016;8.714;2024-03-06T08:29:12;-16261.94;;;-139.71;100.00
3598;BME280;1813;52.016;8.714;2024-03-06T08:31:48;-16261.94;;;-139.71;100.00
3598;BME280;1813;52.016;8.714;2024-03-06T08:34:21;-16261.94;;;-139.71;100.00
3598;BME280;1813;52.016;8.714;2024-03-06T08:36:54;-16261.94;;;-139.71;100.00
3598;BME280;1813;52.016;8.714;2024-03-06T08:39:28;-16261.94;;;-139.71;100.00
3598;BME280;1813;52.016;8.714;2024-03-06T08:42:03;-16261.94;;;-139.71;100.00
3598;BME280;1813;52.016;8.714;2024-03-06T08:44:36;-16261.94;;;-139.71;100.00
3598;BME280;1813;52.016;8.714;2024-03-06T08:47:12;-16261.94;;;-139.71;100.00
3598;BME280;1813;52.016;8.714;2024-03-06T08:49:47;-16261.94;;;-139.71;100.00
3598;BME280;1813;52.016;8.714;2024-03-06T08:52:20;-16261.94;;;-139.71;100.00
3598;BME280;1813;52.016;8.714;2024-03-06T08:54:54;-16261.94;;;-139.71;100.00
3598;BME280;1813;52.016;8.714;2024-03-06T08:57:27;-16261.94;;;-139.71;100.00
3598;BME280;1813;52.016;8.714;2024-03-06T09:00:02;-16261.94;;;-139.71;100.00
3598;BME280;1813;52.016;8.714;2024-03-06T09:02:41;-16261.94;;;-139.71;100.00
3598;BME280;1813;52.016;8.714;2024-03-06T09:05:14;-16261.94;;;-139.71;100.00
3598;BME280;1813;52.016;8.714;2024-03-06T09:07:48;-16261.94;;;-139.71;100.00
3598;BME280;1813;52.016;8.714;2024-03-06T09:10:21;-16261.94;;;-139.71;100.00
3598;BME280;1813;52.016;8.714;2024-03-06T09:12:55;-16261.94;;;-139.71;100.00
3598;BME280;1813;52.016;8.714;2024-03-06T09:15:28;-16261.94;;;-139.71;100.00
3598;BME280;1813;52.016;8.714;2024-03-06T09:18:04;-16261.94;;;-139.71;100.00
3598;BME280;1813;52.016;8.714;2024-03-06T09:20:37;-16261.94;;;-139.71;100.00
3598;BME280;1813;52.016;8.714;2024-03-06T09:23:11;-16261.94;;;-139.71;100.00
3598;BME280;1813;52.016;8.714;2024-03-06T09:25:45;-16261.94;;;-139.71;100.00
3598;BME280;1813;52.016;8.714;2024-03-06T09:28:19;-16261.94;;;-139.71;100.00
3598;BME280;1813;52.016;8.714;2024-03-06T09:30:53;-16261.94;;;-139.71;100.00
3598;BME280;1813;52.016;8.714;2024-03-06T09:33:30;-16261.94;;;-139.71;100.00
3598;BME280;1813;52.016;8.714;2024-03-06T09:36:04;-16261.94;;;-139.71;100.00
3598;BME280;1813;52.016;8.714;2024-03-06T09:38:38;-16261.94;;;-139.71;100.00
3598;BME280;1813;52.016;8.714;2024-03-06T09:41:11;-16261.94;;;-139.71;100.00
3598;BME280;1813;52.016;8.714;2024-03-06T09:43:44;-16261.94;;;-139.71;100.00
3598;BME280;1813;52.016;8.714;2024-03-06T09:46:18;-16261.94;;;-139.71;100.00
3598;BME280;1813;52.016;8.714;2024-03-06T09:48:54;-16261.94;;;-139.71;100.00
3598;BME280;1813;52.016;8.714;2024-03-06T09:51:28;-16261.94;;;-139.71;100.00
3598;BME280;1813;52.016;8.714;2024-03-06T09:54:01;-16261.94;;;-139.71;100.00
3598;BME280;1813;52.016;8.714;2024-03-06T09:56:38;-16261.94;;;-139.71;100.00
3598;BME280;1813;52.016;8.714;2024-03-06T09:59:12;-16261.94;;;-139.71;100.00
3598;BME280;1813;52.016;8.714;2024-03-06T10:01:49;-16261.94;;;-139.71;100.00
3598;BME280;1813;52.016;8.714;2024-03-06T10:04:26;-16261.94;;;-139.71;100.00
3598;BME280;1813;52.016;8.714;2024-03-06T10:07:00;-16261.94;;;-139.71;100.00
3598;BME280;1813;52.016;8.714;2024-03-06T10:09:37;-16261.94;;;-139.71;100.00
3598;BME280;1813;52.016;8.714;2024-03-06T10:12:12;-16261.94;;;-139.71;100.00
3598;BME280;1813;52.016;8.714;2024-03-06T10:14:51;-16261.94;;;-139.71;100.00
3598;BME280;1813;52.016;8.714;2024-03-06T10:17:27;-16261.94;;;-139.71;100.00
3598;BME280;1813;52.016;8.714;2024-03-06T10:20:17;-16261.94;;;-139.71;100.00
3598;BME280;1813;52.016;8.714;2024-03-06T10:22:52;-16261.94;;;-139.71;100.00
3598;BME280;1813;52.016;8.714;2024-03-06T10:25:26;-16261.94;;;-139.71;100.00
3598;BME280;1813;52.016;8.714;2024-03-06T10:28:04;-16261.94;;;-139.71;100.00
3598;BME280;1813;52.016;8.714;2024-03-06T10:30:38;-16261.94;;;-139.71;100.00
3598;BME280;1813;52.016;8.714;2024-03-06T10:33:14;-16261.94;;;-139.71;100.00
3598;BME280;1813;52.016;8.714;2024-03-06T10:35:51;-16261.94;;;-139.71;100.00
3598;BME280;1813;52.016;8.714;2024-03-06T10:38:26;-16261.94;;;-139.71;100.00
3598;BME280;1813;52.016;8.714;2024-03-06T10:41:02;-16261.94;;;-139.71;100.00
3598;BME280;1813;52.016;8.714;2024-03-06T10:43:39;-16261.94;;;-139.71;100.00
3598;BME280;1813;52.016;8.714;2024-03-06T10:46:14;-16261.94;;;-139.71;100.00
3598;BME280;1813;52.016;8.714;2024-03-06T10:48:49;-16261.94;;;-139.71;100.00
3598;BME280;1813;52.016;8.714;2024-03-06T10:51:26;-16261.94;;;-139.71;100.00
3598;BME280;1813;52.016;8.714;2024-03-06T10:54:00;-16261.94;;;-139.71;100.00
3598;BME280;1813;52.016;8.714;2024-03-06T10:56:38;-16261.94;;;-139.71;100.00
3598;BME280;1813;52.016;8.714;2024-03-06T10:59:13;-16261.94;;;-139.71;100.00
3598;BME280;1813;52.016;8.714;2024-03-06T11:01:48;-16261.94;;;-139.71;100.00
3598;BME280;1813;52.016;8.714;2024-03-06T11:04:25;-16261.94;;;-139.71;100.00
3598;BME280;1813;52.016;8.714;2024-03-06T11:07:02;-16261.94;;;-139.71;100.00
3598;BME280;1813;52.016;8.714;2024-03-06T11:09:36;-16261.94;;;-139.71;100.00
3598;BME280;1813;52.016;8.714;2024-03-06T11:12:11;-16261.94;;;-139.71;100.00
3598;BME280;1813;52.016;8.714;2024-03-06T11:14:44;-16261.94;;;-139.71;100.00
3598;BME280;1813;52.016;8.714;2024-03-06T11:17:25;-16261.94;;;-139.71;100.00
3598;BME280;1813;52.016;8.714;2024-03-06T11:20:09;-16261.94;;;-139.71;100.00
3598;BME280;1813;52.016;8.714;2024-03-06T11:23:07;-16261.94;;;-139.71;100.00
3598;BME280;1813;52.016;8.714;2024-03-06T11:26:04;-16261.94;;;-139.71;100.00
3598;BME280;1813;52.016;8.714;2024-03-06T11:28:40;-16261.94;;;-139.71;100.00
3598;BME280;1813;52.016;8.714;2024-03-06T11:31:20;-16261.94;;;-139.71;100.00
3598;BME280;1813;52.016;8.714;2024-03-06T11:33:55;-16261.94;;;-139.71;100.00
3598;BME280;1813;52.016;8.714;2024-03-06T11:36:28;-16261.94;;;-139.71;100.00
3598;BME280;1813;52.016;8.714;2024-03-06T11:39:05;-16261.94;;;-139.71;100.00
3598;BME280;1813;52.016;8.714;2024-03-06T11:41:47;-16261.94;;;-139.71;100.00
3598;BME280;1813;52.016;8.714;2024-03-06T11:44:21;-16261.94;;;-139.71;100.00
3598;BME280;1813;52.016;8.714;2024-03-06T11:46:59;-16261.94;;;-139.71;100.00
3598;BME280;1813;52.016;8.714;2024-03-06T11:49:34;-16261.94;;;-139.71;100.00
3598;BME280;1813;52.016;8.714;2024-03-06T11:52:08;-16261.94;;;-139.71;100.00
3598;BME280;1813;52.016;8.714;2024-03-06T11:54:44;-16261.94;;;-139.71;100.00
3598;BME280;1813;52.016;8.714;2024-03-06T11:57:18;-16261.94;;;-139.71;100.00
3598;BME280;1813;52.016;8.714;2024-03-06T11:59:53;-16261.94;;;-139.71;100.00
3598;BME280;1813;52.016;8.714;2024-03-06T12:02:27;-16261.94;;;-139.71;100.00
3598;BME280;1813;52.016;8.714;2024-03-06T12:05:02;-16261.94;;;-139.71;100.00
3598;BME280;1813;52.016;8.714;2024-03-06T12:07:45;-16261.94;;;-139.71;100.00
3598;BME280;1813;52.016;8.714;2024-03-06T12:10:20;-16261.94;;;-139.71;100.00
3598;BME280;1813;52.016;8.714;2024-03-06T12:12:54;-16261.94;;;-139.71;100.00
3598;BME280;1813;52.016;8.714;2024-03-06T12:15:27;-16261.94;;;-139.71;100.00
3598;BME280;1813;52.016;8.714;2024-03-06T12:18:01;-16261.94;;;-139.71;100.00
3598;BME280;1813;52.016;8.714;2024-03-06T12:20:40;-16261.94;;;-139.71;100.00
3598;BME280;1813;52.016;8.714;2024-03-06T12:23:20;-16261.94;;;-139.71;100.00
3598;BME280;1813;52.016;8.714;2024-03-06T12:26:06;-16261.94;;;-139.71;100.00
3598;BME280;1813;52.016;8.714;2024-03-06T12:28:40;-16261.94;;;-139.71;100.00
3598;BME280;1813;52.016;8.714;2024-03-06T12:31:13;-16261.94;;;-139.71;100.00
3598;BME280;1813;52.016;8.714;2024-03-06T12:33:56;-16261.94;;;-139.71;100.00
3598;BME280;1813;52.016;8.714;2024-03-06T12:36:30;-16261.94;;;-139.71;100.00
3598;BME280;1813;52.016;8.714;2024-03-06T12:39:06;-16261.94;;;-139.71;100.00
3598;BME280;1813;52.016;8.714;2024-03-06T12:41:45;-16261.94;;;-139.71;100.00
3598;BME280;1813;52.016;8.714;2024-03-06T12:44:19;-16261.94;;;-139.71;100.00
3598;BME280;1813;52.016;8.714;2024-03-06T12:46:52;-16261.94;;;-139.71;99.74
3598;BME280;1813;52.016;8.714;2024-03-06T12:49:26;-16261.94;;;-139.71;99.40
3598;BME280;1813;52.016;8.714;2024-03-06T12:51:59;-16261.94;;;-139.71;99.51
3598;BME280;1813;52.016;8.714;2024-03-06T12:54:34;-16261.94;;;-139.71;99.40
3598;BME280;1813;52.016;8.714;2024-03-06T12:57:11;-16261.94;;;-139.71;99.17
3598;BME280;1813;52.016;8.714;2024-03-06T12:59:44;-16261.94;;;-139.71;98.97
3598;BME280;1813;52.016;8.714;2024-03-06T13:02:18;-16261.94;;;-139.71;98.40
3598;BME280;1813;52.016;8.714;2024-03-06T13:04:51;-16261.94;;;-139.71;97.72
3598;BME280;1813;52.016;8.714;2024-03-06T13:07:25;-16261.94;;;-139.71;97.92
3598;BME280;1813;52.016;8.714;2024-03-06T13:09:58;-16261.94;;;-139.71;98.33
3598;BME280;1813;52.016;8.714;2024-03-06T13:12:34;-16261.94;;;-139.71;97.39
3598;BME280;1813;52.016;8.714;2024-03-06T13:15:08;-16261.94;;;-139.71;97.27
3598;BME280;1813;52.016;8.714;2024-03-06T13:17:42;-16261.94;;;-139.71;97.33